Time;durP1;ratioP1;P1;durP2;ratioP2;P2;SDS_P1;SDS_P2;PMS_P1;PMS_P2;Temp;Humidity;BMP_temperature;BMP_pressure;BME280_temperature;BME280_humidity;BME280_pressure;Samples;Min_cycle;Max_cycle;Signal;HPM_P1;HPM_P2
2023/04/17 00:00:07;;;;;;;24.47;16.90;;;;;;;9.11;100.00;101523.38;692310;28;1270;-66
2023/04/17 00:00:27;;;;;;;26.65;17.35;;;;;;;9.13;100.00;101516.44;691235;28;1914;-66
2023/04/17 00:00:49;;;;;;;26.70;16.38;;;;;;;9.20;100.00;101518.28;690792;28;4363;-66
2023/04/17 00:01:10;;;;;;;25.42;16.23;;;;;;;9.16;100.00;101524.31;686854;28;1019;-66
2023/04/17 00:01:31;;;;;;;24.48;16.48;;;;;;;9.13;100.00;101523.41;687635;28;1577;-66
2023/04/17 00:01:54;;;;;;;26.67;18.10;;;;;;;9.12;100.00;101530.31;686594;28;1267;-66
2023/04/17 00:02:14;;;;;;;24.60;17.02;;;;;;;9.13;100.00;101521.66;687875;28;924;-66
2023/04/17 00:02:38;;;;;;;25.00;16.90;;;;;;;9.11;100.00;101520.78;687756;28;1606;-65
2023/04/17 00:03:00;;;;;;;25.08;16.45;;;;;;;9.12;100.00;101525.09;688660;28;1201;-66
2023/04/17 00:03:20;;;;;;;25.25;16.40;;;;;;;9.09;100.00;101522.47;686770;28;1602;-66
2023/04/17 00:03:40;;;;;;;27.23;16.67;;;;;;;9.06;100.00;101519.81;686496;28;4513;-66
2023/04/17 00:04:01;;;;;;;28.10;17.53;;;;;;;9.09;100.00;101524.22;686082;28;742;-66
2023/04/17 00:04:22;;;;;;;26.10;17.25;;;;;;;9.08;100.00;101518.09;687059;28;1673;-66
2023/04/17 00:04:44;;;;;;;25.40;16.33;;;;;;;9.02;100.00;101518.88;687188;28;877;-65
2023/04/17 00:05:07;;;;;;;24.58;16.80;;;;;;;9.06;100.00;101519.81;684550;28;1538;-65
2023/04/17 00:05:30;;;;;;;25.85;17.00;;;;;;;9.01;100.00;101516.25;684637;28;1489;-65
2023/04/17 00:05:52;;;;;;;25.92;16.60;;;;;;;8.97;100.00;101515.34;684415;28;1058;-66
2023/04/17 00:06:13;;;;;;;27.75;17.50;;;;;;;8.96;100.00;101510.09;683609;28;992;-65
2023/04/17 00:06:34;;;;;;;27.17;17.17;;;;;;;8.95;100.00;101526.59;684021;28;1682;-66
2023/04/17 00:06:54;;;;;;;25.75;16.65;;;;;;;8.95;100.00;101516.16;684028;28;4275;-66
2023/04/17 00:07:14;;;;;;;26.13;17.23;;;;;;;8.92;100.00;101506.56;686370;28;801;-65
2023/04/17 00:07:37;;;;;;;25.57;17.43;;;;;;;8.90;100.00;101513.47;687448;28;1451;-65
2023/04/17 00:07:58;;;;;;;25.25;17.45;;;;;;;8.93;100.00;101517.84;687870;28;2207;-66
2023/04/17 00:08:19;;;;;;;24.85;16.90;;;;;;;8.96;100.00;101512.72;686837;28;1240;-65
2023/04/17 00:08:42;;;;;;;25.40;17.23;;;;;;;9.00;100.00;101514.53;685745;28;1643;-66
2023/04/17 00:09:03;;;;;;;25.33;17.00;;;;;;;8.97;100.00;101517.06;686724;28;952;-66
2023/04/17 00:09:24;;;;;;;25.10;17.30;;;;;;;8.95;100.00;101516.16;686213;28;1096;-66
2023/04/17 00:09:44;;;;;;;27.05;17.23;;;;;;;8.95;100.00;101518.78;683945;28;4713;-66
2023/04/17 00:10:07;;;;;;;26.97;16.70;;;;;;;8.92;100.00;101516.13;687930;28;909;-65
2023/04/17 00:10:28;;;;;;;25.45;16.45;;;;;;;8.92;100.00;101513.53;685003;28;1473;-66
2023/04/17 00:10:48;;;;;;;24.08;16.33;;;;;;;8.90;100.00;101518.69;685969;28;889;-65
2023/04/17 00:11:09;;;;;;;26.50;16.70;;;;;;;8.92;100.00;101517.00;685540;28;782;-66
2023/04/17 00:11:29;;;;;;;26.45;17.40;;;;;;;8.92;100.00;101510.91;685257;28;1556;-66
2023/04/17 00:11:50;;;;;;;25.03;17.63;;;;;;;8.90;100.00;101521.28;687867;28;754;-66
2023/04/17 00:12:10;;;;;;;24.00;17.17;;;;;;;8.91;100.00;101514.38;686264;28;870;-66
2023/04/17 00:12:30;;;;;;;24.23;16.53;;;;;;;8.89;100.00;101516.94;687251;28;1583;-66
2023/04/17 00:12:51;;;;;;;25.60;17.33;;;;;;;8.89;100.00;101521.28;688633;28;5059;-65
2023/04/17 00:13:11;;;;;;;26.83;17.27;;;;;;;8.88;100.00;101522.16;687733;28;1329;-66
2023/04/17 00:13:32;;;;;;;25.08;16.45;;;;;;;8.86;100.00;101515.16;687610;28;1558;-66
2023/04/17 00:13:52;;;;;;;27.03;16.77;;;;;;;8.92;100.00;101519.59;690005;28;876;-66
2023/04/17 00:14:12;;;;;;;24.70;16.75;;;;;;;8.94;100.00;101515.28;690254;28;856;-66
2023/04/17 00:14:33;;;;;;;24.00;17.00;;;;;;;8.92;100.00;101526.56;689948;28;1612;-65
2023/04/17 00:14:53;;;;;;;24.70;16.65;;;;;;;8.89;100.00;101522.16;690323;28;1287;-65
2023/04/17 00:15:14;;;;;;;23.57;15.77;;;;;;;8.97;100.00;101520.56;688883;28;928;-66
2023/04/17 00:15:34;;;;;;;25.17;16.42;;;;;;;9.08;100.00;101518.09;685775;28;1709;-65
2023/04/17 00:15:55;;;;;;;27.63;17.13;;;;;;;9.04;100.00;101516.28;685014;28;4314;-66
2023/04/17 00:16:15;;;;;;;26.40;17.02;;;;;;;8.98;100.00;101516.22;685961;28;996;-65
2023/04/17 00:16:35;;;;;;;25.40;15.83;;;;;;;8.96;100.00;101520.53;686809;28;1082;-66
2023/04/17 00:16:56;;;;;;;26.40;17.10;;;;;;;8.96;100.00;101517.94;686082;28;1465;-66
2023/04/17 00:17:16;;;;;;;25.37;16.47;;;;;;;9.03;100.00;101519.78;685565;28;743;-65
2023/04/17 00:17:37;;;;;;;26.13;17.17;;;;;;;9.05;100.00;101519.78;688431;28;1535;-66
2023/04/17 00:17:57;;;;;;;25.05;17.15;;;;;;;9.09;100.00;101514.63;688697;28;909;-66
2023/04/17 00:18:17;;;;;;;23.80;16.70;;;;;;;9.12;100.00;101522.50;689170;28;1353;-65
2023/04/17 00:18:39;;;;;;;24.65;17.08;;;;;;;9.06;100.00;101518.94;688082;28;924;-65
2023/04/17 00:18:59;;;;;;;25.30;17.35;;;;;;;9.03;100.00;101519.78;690499;28;5066;-65
2023/04/17 00:19:19;;;;;;;24.50;16.80;;;;;;;8.99;100.00;101512.75;688542;28;703;-65
2023/04/17 00:19:40;;;;;;;24.27;15.82;;;;;;;8.98;100.00;101516.22;689295;28;1578;-65
2023/04/17 00:20:00;;;;;;;27.40;16.73;;;;;;;8.95;100.00;101516.16;690172;28;1334;-65
2023/04/17 00:20:21;;;;;;;27.77;16.67;;;;;;;8.93;100.00;101523.06;686065;28;1506;-65
2023/04/17 00:20:41;;;;;;;24.93;17.27;;;;;;;9.01;100.00;101517.16;688001;28;1910;-65
2023/04/17 00:21:02;;;;;;;26.13;17.65;;;;;;;9.05;100.00;101518.06;687713;28;841;-65
2023/04/17 00:21:22;;;;;;;26.80;17.17;;;;;;;9.03;100.00;101514.56;687098;28;1605;-65
2023/04/17 00:21:42;;;;;;;24.42;16.50;;;;;;;8.99;100.00;101517.97;687124;28;4358;-65
2023/04/17 00:22:03;;;;;;;25.70;17.23;;;;;;;8.98;100.00;101516.22;690461;28;1062;-65
2023/04/17 00:22:23;;;;;;;25.55;17.20;;;;;;;8.96;100.00;101510.09;692310;28;1730;-65
2023/04/17 00:22:44;;;;;;;26.57;17.83;;;;;;;8.98;100.00;101516.22;692634;28;757;-65
2023/04/17 00:23:06;;;;;;;27.92;18.20;;;;;;;8.95;100.00;101510.97;691997;28;1263;-65
2023/04/17 00:23:26;;;;;;;26.27;16.85;;;;;;;8.99;100.00;101511.00;692215;28;926;-65
2023/04/17 00:23:46;;;;;;;27.20;17.00;;;;;;;8.98;100.00;101513.59;691516;28;947;-65
2023/04/17 00:24:07;;;;;;;28.52;18.52;;;;;;;8.96;100.00;101515.31;691504;28;825;-65
2023/04/17 00:24:27;;;;;;;26.43;17.13;;;;;;;8.96;100.00;101517.94;690809;28;1605;-66
2023/04/17 00:24:48;;;;;;;26.77;17.53;;;;;;;8.95;100.00;101513.56;690542;28;4693;-66
2023/04/17 00:25:11;;;;;;;25.60;16.80;;;;;;;8.99;100.00;101508.41;692163;28;788;-65
2023/04/17 00:25:32;;;;;;;28.25;18.15;;;;;;;8.98;100.00;101513.59;691234;28;1452;-65
2023/04/17 00:25:52;;;;;;;27.00;17.93;;;;;;;8.97;100.00;101519.66;692361;28;792;-66
2023/04/17 00:26:12;;;;;;;28.17;18.37;;;;;;;9.03;100.00;101517.16;691044;28;3675;-65
2023/04/17 00:26:35;;;;;;;27.92;18.02;;;;;;;9.05;100.00;101515.44;690828;28;1780;-65
2023/04/17 00:26:56;;;;;;;28.52;17.60;;;;;;;9.03;100.00;101509.34;693160;28;873;-65
2023/04/17 00:27:16;;;;;;;27.33;17.70;;;;;;;9.06;100.00;101517.22;692203;28;1059;-65
2023/04/17 00:27:37;;;;;;;27.15;17.60;;;;;;;9.04;100.00;101518.91;690613;28;1556;-64
2023/04/17 00:27:57;;;;;;;27.17;18.30;;;;;;;9.00;100.00;101510.16;688652;28;4403;-65
2023/04/17 00:28:18;;;;;;;27.43;18.10;;;;;;;9.05;100.00;101509.38;689407;28;929;-65
2023/04/17 00:28:38;;;;;;;26.88;17.83;;;;;;;9.02;100.00;101513.66;687307;28;1582;-65
2023/04/17 00:29:00;;;;;;;27.97;17.73;;;;;;;9.00;100.00;101515.38;686172;28;1236;-65
2023/04/17 00:29:20;;;;;;;26.40;17.80;;;;;;;8.96;100.00;101513.59;685796;28;1519;-65
2023/04/17 00:29:41;;;;;;;26.70;17.87;;;;;;;8.99;100.00;101511.00;682445;28;1279;-65
2023/04/17 00:30:01;;;;;;;26.02;17.42;;;;;;;9.02;100.00;101507.59;685577;28;921;-65
2023/04/17 00:30:22;;;;;;;26.83;17.90;;;;;;;8.98;100.00;101509.25;686328;28;1537;-65
2023/04/17 00:30:42;;;;;;;27.15;18.10;;;;;;;8.96;100.00;101513.59;689979;28;4422;-65
2023/04/17 00:31:03;;;;;;;27.27;17.93;;;;;;;8.94;100.00;101512.66;689661;28;778;-65
2023/04/17 00:31:23;;;;;;;26.58;17.58;;;;;;;8.92;100.00;101511.78;687812;28;1649;-65
2023/04/17 00:31:44;;;;;;;25.98;17.25;;;;;;;8.92;100.00;101516.13;688657;28;892;-65
2023/04/17 00:32:04;;;;;;;25.03;16.83;;;;;;;8.90;100.00;101515.22;689647;28;904;-65
2023/04/17 00:32:25;;;;;;;24.77;16.75;;;;;;;8.89;100.00;101516.94;690345;28;1592;-65
2023/04/17 00:32:45;;;;;;;27.10;17.73;;;;;;;8.88;100.00;101516.94;685991;28;1465;-65
2023/04/17 00:33:06;;;;;;;27.10;17.67;;;;;;;8.89;100.00;101511.75;685172;28;1252;-65
2023/04/17 00:33:27;;;;;;;26.80;17.77;;;;;;;8.90;100.00;101518.69;681332;28;1579;-65
2023/04/17 00:33:47;;;;;;;28.38;18.17;;;;;;;8.90;100.00;101518.69;682039;28;5091;-65
2023/04/17 00:34:08;;;;;;;26.43;18.13;;;;;;;8.92;100.00;101513.53;683899;28;956;-66
2023/04/17 00:34:28;;;;;;;27.40;18.05;;;;;;;8.91;100.00;101511.75;683978;28;1591;-66
2023/04/17 00:34:49;;;;;;;25.97;17.63;;;;;;;8.89;100.00;101511.75;683225;28;1313;-65
2023/04/17 00:35:10;;;;;;;26.48;17.38;;;;;;;8.88;100.00;101511.72;686711;28;940;-65
2023/04/17 00:35:30;;;;;;;26.40;17.53;;;;;;;8.87;100.00;101508.22;687263;28;1612;-65
2023/04/17 00:35:51;;;;;;;25.77;17.60;;;;;;;8.87;100.00;101513.44;688021;28;782;-66
2023/04/17 00:36:14;;;;;;;28.30;18.13;;;;;;;8.86;100.00;101504.75;686412;28;2314;-66
2023/04/17 00:36:34;;;;;;;26.08;17.73;;;;;;;8.91;100.00;101509.16;687374;28;1535;-66
2023/04/17 00:36:55;;;;;;;25.63;16.97;;;;;;;8.91;100.00;101515.22;687182;28;4636;-65
2023/04/17 00:37:15;;;;;;;26.92;17.25;;;;;;;8.90;100.00;101508.25;686285;28;940;-66
2023/04/17 00:37:36;;;;;;;27.58;17.52;;;;;;;8.90;100.00;101507.38;685282;28;1571;-66
2023/04/17 00:37:56;;;;;;;25.93;17.40;;;;;;;8.87;100.00;101516.03;687117;28;857;-66
2023/04/17 00:38:17;;;;;;;27.25;17.67;;;;;;;8.85;100.00;101510.81;687367;28;766;-66
2023/04/17 00:38:38;;;;;;;28.40;17.30;;;;;;;8.85;100.00;101509.94;684618;28;1500;-65
2023/04/17 00:38:58;;;;;;;26.00;17.38;;;;;;;8.84;100.00;101509.03;687538;28;5053;-66
2023/04/17 00:39:19;;;;;;;24.67;17.45;;;;;;;8.86;100.00;101512.56;687480;28;1302;-66
2023/04/17 00:39:39;;;;;;;26.40;17.95;;;;;;;8.95;100.00;101503.13;686314;28;4738;-66
2023/04/17 00:40:00;;;;;;;25.50;17.60;;;;;;;8.94;100.00;101514.41;685337;28;826;-66
2023/04/17 00:40:20;;;;;;;28.40;18.07;;;;;;;8.90;100.00;101502.19;684809;28;1073;-66
2023/04/17 00:40:41;;;;;;;28.33;18.83;;;;;;;8.88;100.00;101504.75;687171;28;1926;-66
2023/04/17 00:41:02;;;;;;;26.70;18.40;;;;;;;8.87;100.00;101505.59;688030;28;1461;-66
2023/04/17 00:41:23;;;;;;;25.50;17.10;;;;;;;8.87;100.00;101505.59;687473;28;1507;-65
2023/04/17 00:41:43;;;;;;;26.27;17.50;;;;;;;8.92;100.00;101500.47;689388;28;758;-66
2023/04/17 00:42:03;;;;;;;26.05;17.77;;;;;;;8.93;100.00;101505.72;689825;28;1305;-66
2023/04/17 00:42:24;;;;;;;28.63;18.23;;;;;;;8.92;100.00;101508.31;689128;28;1498;-66
2023/04/17 00:42:45;;;;;;;28.25;18.52;;;;;;;8.90;100.00;101497.81;690184;28;4416;-66
2023/04/17 00:43:05;;;;;;;27.95;18.25;;;;;;;8.89;100.00;101506.53;689245;28;861;-66
2023/04/17 00:43:26;;;;;;;28.63;18.43;;;;;;;8.89;100.00;101508.22;686576;28;1643;-66
2023/04/17 00:43:46;;;;;;;28.48;18.33;;;;;;;8.86;100.00;101504.75;686897;28;904;-66
2023/04/17 00:44:07;;;;;;;27.83;17.23;;;;;;;8.87;100.00;101503.00;685726;28;1135;-66
2023/04/17 00:44:27;;;;;;;27.83;17.80;;;;;;;8.86;100.00;101512.56;686238;28;1555;-65
2023/04/17 00:44:48;;;;;;;27.10;18.17;;;;;;;8.85;100.00;101499.50;688075;28;726;-66
2023/04/17 00:45:10;;;;;;;28.85;18.10;;;;;;;8.82;100.00;101505.53;686318;28;1202;-66
2023/04/17 00:45:30;;;;;;;26.83;17.35;;;;;;;8.82;100.00;101504.66;686238;28;1455;-65
2023/04/17 00:45:52;;;;;;;26.40;17.23;;;;;;;8.82;100.00;101505.53;688668;28;4499;-66
2023/04/17 00:46:14;;;;;;;26.35;17.60;;;;;;;8.83;100.00;101507.31;689290;28;777;-66
2023/04/17 00:46:34;;;;;;;26.55;17.30;;;;;;;8.82;100.00;101508.16;687821;28;1339;-66
2023/04/17 00:46:55;;;;;;;25.88;17.23;;;;;;;8.81;100.00;101506.38;686774;28;1313;-65
2023/04/17 00:47:16;;;;;;;25.50;17.67;;;;;;;8.80;100.00;101506.38;687209;28;1255;-65
2023/04/17 00:47:37;;;;;;;24.92;17.13;;;;;;;8.77;100.00;101507.19;686459;28;1717;-65
2023/04/17 00:48:00;;;;;;;27.02;17.92;;;;;;;8.77;100.00;101509.81;686528;28;1746;-66
2023/04/17 00:48:22;;;;;;;28.20;18.25;;;;;;;8.77;100.00;101507.19;685075;28;1032;-65
2023/04/17 00:48:43;;;;;;;28.30;18.55;;;;;;;8.78;100.00;101503.75;684773;28;4383;-65
2023/04/17 00:49:04;;;;;;;26.87;18.07;;;;;;;8.77;100.00;101501.97;689204;28;1485;-65
2023/04/17 00:49:26;;;;;;;27.93;18.13;;;;;;;8.77;100.00;101512.41;687518;28;1388;-65
2023/04/17 00:49:48;;;;;;;28.15;18.42;;;;;;;8.77;100.00;101503.72;688110;28;746;-65
2023/04/17 00:50:09;;;;;;;28.67;19.63;;;;;;;8.75;100.00;101505.41;689455;28;983;-65
2023/04/17 00:50:30;;;;;;;28.58;17.80;;;;;;;8.74;100.00;101504.53;686522;28;1456;-65
2023/04/17 00:50:51;;;;;;;28.48;18.45;;;;;;;8.75;100.00;101508.91;688134;28;984;-65
2023/04/17 00:51:12;;;;;;;27.17;18.10;;;;;;;8.76;100.00;101502.81;686318;28;1338;-65
2023/04/17 00:51:34;;;;;;;27.50;17.88;;;;;;;8.76;100.00;101499.34;685131;28;1606;-65
2023/04/17 00:51:55;;;;;;;27.23;17.88;;;;;;;8.77;100.00;101501.97;684100;28;4342;-65
2023/04/17 00:52:26;;;;;;;29.15;17.80;;;;;;;8.78;100.00;101498.53;686116;28;1240;-65
2023/04/17 00:52:47;;;;;;;26.85;18.35;;;;;;;8.87;100.00;101495.19;688199;28;837;-65
2023/04/17 00:53:08;;;;;;;26.48;18.23;;;;;;;8.87;100.00;101497.78;688372;28;856;-65
2023/04/17 00:53:32;;;;;;;27.63;18.17;;;;;;;8.84;100.00;101498.59;687360;28;1613;-65
2023/04/17 00:53:54;;;;;;;26.00;17.60;;;;;;;8.82;100.00;101502.94;684210;28;1255;-65
2023/04/17 00:54:15;;;;;;;25.85;17.42;;;;;;;8.80;100.00;101506.38;684633;28;939;-65
2023/04/17 00:54:36;;;;;;;25.50;17.73;;;;;;;8.78;100.00;101506.34;679338;28;1617;-65
2023/04/17 00:54:57;;;;;;;26.10;17.70;;;;;;;8.78;100.00;101502.88;680542;28;4366;-65
2023/04/17 00:55:19;;;;;;;26.83;17.38;;;;;;;8.77;100.00;101507.19;682010;28;1454;-65
2023/04/17 00:55:40;;;;;;;28.60;17.98;;;;;;;8.77;100.00;101501.09;681911;28;1682;-65
2023/04/17 00:56:05;;;;;;;27.20;17.83;;;;;;;8.81;100.00;101508.13;685241;28;901;-65
2023/04/17 00:56:27;;;;;;;27.13;18.27;;;;;;;8.79;100.00;101504.59;683884;28;1778;-65
2023/04/17 00:56:49;;;;;;;27.55;18.45;;;;;;;8.77;100.00;101496.75;686312;28;1347;-65
2023/04/17 00:57:11;;;;;;;27.77;18.27;;;;;;;8.74;100.00;101499.31;689998;28;1172;-65
2023/04/17 00:57:33;;;;;;;27.33;17.92;;;;;;;8.77;100.00;101504.59;690299;28;837;-65
2023/04/17 00:57:55;;;;;;;25.55;17.88;;;;;;;8.93;100.00;101502.22;690807;28;4515;-65
2023/04/17 00:58:15;;;;;;;27.50;19.10;;;;;;;8.94;100.00;101502.22;689297;28;889;-65
2023/04/17 00:58:36;;;;;;;26.27;18.13;;;;;;;8.92;100.00;101495.28;688035;28;1155;-65
2023/04/17 00:59:00;;;;;;;26.38;18.88;;;;;;;8.88;100.00;101503.91;689516;28;739;-65
2023/04/17 00:59:21;;;;;;;28.65;19.30;;;;;;;8.84;100.00;101495.13;689141;28;1081;-65
2023/04/17 00:59:43;;;;;;;30.42;18.63;;;;;;;8.82;100.00;101500.31;688819;28;786;-65
2023/04/17 01:00:04;;;;;;;27.60;18.25;;;;;;;8.84;100.00;101492.53;689516;28;1208;-65
2023/04/17 01:00:25;;;;;;;29.13;18.60;;;;;;;8.84;100.00;101502.97;688405;28;1971;-65
2023/04/17 01:00:46;;;;;;;28.27;18.17;;;;;;;8.88;100.00;101503.91;689200;28;4237;-65
2023/04/17 01:01:08;;;;;;;28.27;18.80;;;;;;;8.84;100.00;101509.03;687162;28;1414;-65
2023/04/17 01:01:28;;;;;;;29.40;18.52;;;;;;;8.83;100.00;101501.19;687795;28;1555;-65
2023/04/17 01:01:49;;;;;;;28.65;18.17;;;;;;;8.81;100.00;101503.78;688183;28;1301;-65
2023/04/17 01:02:11;;;;;;;29.40;18.67;;;;;;;8.79;100.00;101502.00;689301;28;1099;-65
2023/04/17 01:02:32;;;;;;;28.20;18.50;;;;;;;8.79;100.00;101510.72;688632;28;1475;-65
2023/04/17 01:02:55;;;;;;;27.42;18.55;;;;;;;8.79;100.00;101499.38;689960;28;960;-65
2023/04/17 01:03:16;;;;;;;25.95;18.20;;;;;;;8.78;100.00;101503.75;688362;28;892;-65
2023/04/17 01:03:36;;;;;;;28.35;18.45;;;;;;;8.77;100.00;101503.72;686212;28;1383;-65
2023/04/17 01:03:58;;;;;;;27.27;18.13;;;;;;;8.80;100.00;101502.03;685452;28;4709;-65
2023/04/17 01:04:19;;;;;;;30.42;18.95;;;;;;;8.79;100.00;101502.91;685715;28;1505;-66
2023/04/17 01:04:40;;;;;;;28.63;19.73;;;;;;;8.77;100.00;101496.75;686703;28;1393;-65
2023/04/17 01:05:00;;;;;;;27.42;19.17;;;;;;;8.78;100.00;101506.34;689483;28;1137;-65
2023/04/17 01:05:21;;;;;;;28.33;18.07;;;;;;;8.80;100.00;101501.16;689058;28;1356;-65
2023/04/17 01:05:43;;;;;;;28.53;18.07;;;;;;;8.79;100.00;101499.38;686866;28;1321;-65
2023/04/17 01:06:05;;;;;;;29.13;19.23;;;;;;;8.79;100.00;101508.09;686022;28;1144;-65
2023/04/17 01:06:25;;;;;;;29.40;19.27;;;;;;;8.77;100.00;101501.97;682781;28;1682;-65
2023/04/17 01:06:46;;;;;;;27.83;19.13;;;;;;;8.77;100.00;101504.59;683263;28;4601;-65
2023/04/17 01:07:07;;;;;;;29.23;18.70;;;;;;;8.76;100.00;101500.22;684615;28;1233;-65
2023/04/17 01:07:29;;;;;;;29.63;18.73;;;;;;;8.77;100.00;101508.94;684647;28;1576;-65
2023/04/17 01:07:50;;;;;;;29.08;18.70;;;;;;;8.76;100.00;101502.81;684768;28;1044;-65
2023/04/17 01:08:10;;;;;;;29.75;18.77;;;;;;;8.76;100.00;101501.97;687061;28;1402;-65
2023/04/17 01:08:40;;;;;;;29.67;18.53;;;;;;;8.79;100.00;101504.59;686899;28;1594;-65
2023/04/17 01:09:01;;;;;;;26.52;18.45;;;;;;;8.78;100.00;101502.88;686520;28;1274;-65
2023/04/17 01:09:21;;;;;;;28.58;19.08;;;;;;;8.78;100.00;101498.53;686980;28;1566;-65
2023/04/17 01:09:42;;;;;;;29.57;19.17;;;;;;;8.78;100.00;101498.53;686942;28;4374;-65
2023/04/17 01:10:03;;;;;;;30.55;19.60;;;;;;;8.78;100.00;101495.06;687091;28;699;-65
2023/04/17 01:10:23;;;;;;;30.20;19.90;;;;;;;8.78;100.00;101497.66;683359;28;1591;-65
2023/04/17 01:10:44;;;;;;;28.70;19.35;;;;;;;8.77;100.00;101504.59;680548;28;833;-65
2023/04/17 01:11:05;;;;;;;28.50;19.80;;;;;;;8.80;100.00;101499.41;684004;28;1039;-65
2023/04/17 01:11:25;;;;;;;30.55;19.88;;;;;;;8.80;100.00;101496.81;683414;28;1654;-65
2023/04/17 01:11:45;;;;;;;29.30;19.43;;;;;;;8.80;100.00;101493.34;684381;28;1541;-65
2023/04/17 01:12:16;;;;;;;28.48;19.73;;;;;;;8.78;100.00;101498.53;684290;28;840;-65
2023/04/17 01:12:37;;;;;;;28.45;19.05;;;;;;;8.77;100.00;101495.91;685702;28;1543;-65
2023/04/17 01:13:06;;;;;;;30.27;19.50;;;;;;;8.75;100.00;101498.47;687461;28;4529;-65
2023/04/17 01:13:30;;;;;;;28.35;18.80;;;;;;;8.76;100.00;101496.75;686987;28;1482;-65
2023/04/17 01:13:51;;;;;;;30.02;19.70;;;;;;;8.76;100.00;101500.22;688534;28;1247;-65
2023/04/17 01:14:13;;;;;;;29.20;18.97;;;;;;;8.75;100.00;101498.47;688511;28;727;-65
2023/04/17 01:14:34;;;;;;;30.45;19.42;;;;;;;8.76;100.00;101496.75;686086;28;1681;-65
2023/04/17 01:14:55;;;;;;;30.10;19.90;;;;;;;8.75;100.00;101495.88;684491;28;1519;-65
2023/04/17 01:15:16;;;;;;;30.80;19.17;;;;;;;8.75;100.00;101493.28;684688;28;1243;-65
2023/04/17 01:15:36;;;;;;;31.40;20.23;;;;;;;8.77;100.00;101493.28;686067;28;1314;-65
2023/04/17 01:15:57;;;;;;;31.52;20.38;;;;;;;8.79;100.00;101494.19;686431;28;4363;-66
2023/04/17 01:16:18;;;;;;;30.03;19.40;;;;;;;8.80;100.00;101494.19;686870;28;1124;-65
2023/04/17 01:16:40;;;;;;;30.10;19.42;;;;;;;8.86;100.00;101493.41;683977;28;1437;-65
2023/04/17 01:17:01;;;;;;;29.88;19.45;;;;;;;8.84;100.00;101492.53;684552;28;958;-65
2023/04/17 01:17:24;;;;;;;28.98;19.77;;;;;;;8.86;100.00;101490.81;686233;28;1026;-66
2023/04/17 01:17:45;;;;;;;29.67;19.92;;;;;;;8.83;100.00;101496.88;684766;28;1088;-65
2023/04/17 01:18:06;;;;;;;30.53;19.87;;;;;;;8.82;100.00;101489.91;685751;28;1213;-65
2023/04/17 01:18:29;;;;;;;29.52;20.02;;;;;;;8.81;100.00;101493.34;683235;28;1479;-66
2023/04/17 01:18:50;;;;;;;28.33;19.75;;;;;;;8.81;100.00;101497.69;684539;28;4452;-65
2023/04/17 01:19:14;;;;;;;28.75;19.83;;;;;;;8.79;100.00;101491.56;683429;28;1078;-65
2023/04/17 01:19:35;;;;;;;28.02;19.00;;;;;;;8.80;100.00;101491.59;681680;28;2069;-65
2023/04/17 01:19:56;;;;;;;28.70;19.25;;;;;;;8.80;100.00;101490.72;684367;28;1256;-65
2023/04/17 01:20:17;;;;;;;29.15;19.65;;;;;;;8.79;100.00;101499.38;685192;28;928;-65
2023/04/17 01:20:37;;;;;;;29.65;19.48;;;;;;;8.78;100.00;101497.66;684466;28;1942;-65
2023/04/17 01:20:57;;;;;;;28.87;19.40;;;;;;;8.76;100.00;101494.13;684859;28;775;-65
2023/04/17 01:21:18;;;;;;;29.95;18.92;;;;;;;8.75;100.00;101495.88;685494;28;1145;-65
2023/04/17 01:21:38;;;;;;;29.47;19.10;;;;;;;8.76;100.00;101497.59;687525;28;1689;-65
2023/04/17 01:22:03;;;;;;;29.75;18.98;;;;;;;8.77;100.00;101501.09;691134;28;4553;-65
2023/04/17 01:22:23;;;;;;;29.90;19.88;;;;;;;8.75;100.00;101502.81;689424;28;3232;-65
2023/04/17 01:22:48;;;;;;;28.45;19.45;;;;;;;8.79;100.00;101497.69;688735;28;1255;-65
2023/04/17 01:23:10;;;;;;;29.70;19.40;;;;;;;8.80;100.00;101494.19;684651;28;1272;-65
2023/04/17 01:23:45;;;;;;;28.42;19.05;;;;;;;8.79;100.00;101499.38;687092;28;1455;-65
2023/04/17 01:24:06;;;;;;;29.15;19.58;;;;;;;8.77;100.00;101495.91;687099;28;1255;-65
2023/04/17 01:24:27;;;;;;;28.50;18.98;;;;;;;8.76;100.00;101496.75;686364;28;1462;-65
2023/04/17 01:24:50;;;;;;;30.33;19.57;;;;;;;8.75;100.00;101494.97;683670;28;4337;-64
2023/04/17 01:25:10;;;;;;;29.33;19.48;;;;;;;8.74;100.00;101495.84;686697;28;1394;-65
2023/04/17 01:25:33;;;;;;;28.60;19.85;;;;;;;8.74;100.00;101495.84;687273;28;1563;-65
2023/04/17 01:25:53;;;;;;;30.15;20.00;;;;;;;8.74;100.00;101493.25;686558;28;1432;-65
2023/04/17 01:26:20;;;;;;;29.70;20.42;;;;;;;8.73;100.00;101494.97;686316;28;1499;-65
2023/04/17 01:26:42;;;;;;;29.73;20.45;;;;;;;8.73;100.00;101494.09;678690;28;1505;-65
2023/04/17 01:27:03;;;;;;;29.55;19.45;;;;;;;8.73;100.00;101492.34;681069;28;1419;-65
2023/04/17 01:27:24;;;;;;;28.65;19.65;;;;;;;8.71;100.00;101494.06;681776;28;1587;-65
2023/04/17 01:27:44;;;;;;;31.27;19.10;;;;;;;8.69;100.00;101488.84;681940;28;4921;-65
2023/04/17 01:28:05;;;;;;;30.75;19.73;;;;;;;8.71;100.00;101487.97;683285;28;1300;-65
2023/04/17 01:28:25;;;;;;;31.00;20.13;;;;;;;8.72;100.00;101497.53;685123;28;1503;-65
2023/04/17 01:28:56;;;;;;;31.90;19.88;;;;;;;8.72;100.00;101494.94;685634;28;1057;-65
2023/04/17 01:29:17;;;;;;;32.08;19.50;;;;;;;8.74;100.00;101494.13;687678;28;1227;-65
2023/04/17 01:29:39;;;;;;;31.08;20.10;;;;;;;8.79;100.00;101489.84;680961;28;2115;-65
2023/04/17 01:29:59;;;;;;;30.77;20.20;;;;;;;8.78;100.00;101488.09;681602;28;909;-65
2023/04/17 01:30:20;;;;;;;28.42;19.65;;;;;;;8.76;100.00;101484.56;683375;28;1359;-65
2023/04/17 01:31:01;;;;;;;29.08;19.42;;;;;;;8.73;100.00;101492.34;687337;28;6256;-65
2023/04/17 01:31:22;;;;;;;29.67;19.90;;;;;;;8.72;100.00;101493.19;685361;28;1200;-65
2023/04/17 01:31:42;;;;;;;30.77;20.00;;;;;;;8.73;100.00;101489.75;688366;28;1105;-65
2023/04/17 01:32:03;;;;;;;29.00;19.23;;;;;;;8.72;100.00;101490.59;687937;28;719;-65
2023/04/17 01:32:23;;;;;;;28.60;19.20;;;;;;;8.72;100.00;101487.97;689099;28;1434;-65
2023/04/17 01:32:44;;;;;;;28.77;20.20;;;;;;;8.71;100.00;101491.47;687782;28;971;-65
2023/04/17 01:33:04;;;;;;;29.65;19.85;;;;;;;8.72;100.00;101493.19;687704;28;1249;-65
2023/04/17 01:33:25;;;;;;;31.73;20.20;;;;;;;8.72;100.00;101490.59;687013;28;1538;-65
2023/04/17 01:33:48;;;;;;;33.67;19.95;;;;;;;8.73;100.00;101492.34;684129;28;4496;-65
2023/04/17 01:34:09;;;;;;;32.88;20.17;;;;;;;8.74;100.00;101491.50;684714;28;1436;-65
2023/04/17 01:34:29;;;;;;;31.70;19.87;;;;;;;8.75;100.00;101490.66;683379;28;1413;-65
2023/04/17 01:34:50;;;;;;;29.98;19.42;;;;;;;8.76;100.00;101494.13;685035;28;1012;-65
2023/04/17 01:35:10;;;;;;;29.33;19.40;;;;;;;8.77;100.00;101493.28;684647;28;817;-65
2023/04/17 01:35:31;;;;;;;29.02;19.73;;;;;;;8.79;100.00;101494.19;680865;28;1540;-66
2023/04/17 01:35:52;;;;;;;29.45;19.27;;;;;;;8.79;100.00;101500.28;680525;28;1212;-66
2023/04/17 01:36:12;;;;;;;29.33;19.40;;;;;;;8.76;100.00;101494.13;677098;28;873;-66
2023/04/17 01:36:32;;;;;;;29.90;20.45;;;;;;;8.76;100.00;101494.13;676948;28;1071;-66
2023/04/17 01:36:53;;;;;;;32.00;20.23;;;;;;;8.75;100.00;101495.88;678818;28;4299;-66
2023/04/17 01:37:14;;;;;;;32.15;20.30;;;;;;;8.74;100.00;101499.31;679570;28;1315;-66
2023/04/17 01:37:34;;;;;;;31.05;19.98;;;;;;;8.75;100.00;101492.38;683942;28;1694;-66
2023/04/17 01:37:55;;;;;;;30.63;19.37;;;;;;;8.77;100.00;101496.75;687146;28;908;-66
2023/04/17 01:38:16;;;;;;;33.30;21.33;;;;;;;8.81;100.00;101493.34;690165;28;1389;-65
2023/04/17 01:38:36;;;;;;;30.90;21.20;;;;;;;8.80;100.00;101503.75;689728;28;1776;-66
2023/04/17 01:38:56;;;;;;;31.53;20.50;;;;;;;8.77;100.00;101501.97;687264;28;5171;-66
2023/04/17 01:39:17;;;;;;;31.50;20.13;;;;;;;8.77;100.00;101495.91;683782;28;857;-66